createdAt,value
2018-06-11T00:00:15.351Z,7.43
2018-06-11T00:02:49.568Z,7.10
2018-06-11T00:05:18.668Z,7.30
2018-06-11T00:07:47.764Z,7.60
2018-06-11T00:10:17.476Z,7.10
2018-06-11T00:12:46.617Z,7.60
2018-06-11T00:15:16.698Z,7.77
2018-06-11T00:17:45.802Z,6.77
2018-06-11T00:20:14.940Z,6.63
2018-06-11T00:22:44.850Z,7.22
2018-06-11T00:25:14.988Z,7.47
2018-06-11T00:27:44.948Z,7.10
2018-06-11T00:30:14.883Z,7.50
2018-06-11T00:32:44.954Z,6.60
2018-06-11T00:35:14.941Z,7.60
2018-06-11T00:37:45.005Z,7.10
2018-06-11T00:40:14.956Z,9.20
2018-06-11T00:42:44.953Z,7.83
2018-06-11T00:45:15.684Z,7.72
2018-06-11T00:47:44.904Z,7.67
2018-06-11T00:50:14.974Z,7.95
2018-06-11T00:52:44.973Z,8.20
2018-06-11T00:55:18.882Z,8.63
2018-06-11T00:57:48.006Z,9.40
2018-06-11T01:00:17.157Z,7.80
2018-06-11T01:02:47.164Z,8.40
2018-06-11T01:05:21.277Z,9.70
2018-06-11T01:07:50.420Z,10.05
2018-06-11T01:10:19.470Z,9.43
2018-06-11T01:12:48.642Z,9.93
2018-06-11T01:15:17.858Z,10.10
2018-06-11T01:17:46.992Z,9.50
2018-06-11T01:20:19.510Z,9.50
2018-06-11T01:22:48.632Z,8.67
2018-06-11T01:25:17.740Z,9.30
2018-06-11T01:27:46.812Z,9.20
2018-06-11T01:30:16.032Z,9.10
2018-06-11T01:32:45.224Z,8.30
2018-06-11T01:35:15.283Z,9.50
2018-06-11T01:37:46.306Z,8.10
2018-06-11T01:40:15.491Z,8.40
2018-06-11T01:42:45.530Z,8.75
2018-06-11T01:45:15.361Z,7.10
2018-06-11T01:47:45.383Z,7.30
2018-06-11T01:50:15.349Z,7.72
2018-06-11T01:52:45.409Z,8.35
2018-06-11T01:55:15.461Z,8.68
2018-06-11T01:57:45.512Z,9.20
2018-06-11T02:00:15.489Z,8.80
2018-06-11T02:02:45.540Z,9.03
2018-06-11T02:05:15.509Z,9.68
2018-06-11T02:07:47.164Z,9.28
2018-06-11T02:10:19.842Z,10.13
2018-06-11T02:12:49.001Z,9.63
2018-06-11T02:15:18.158Z,10.13
2018-06-11T02:17:47.279Z,10.57
2018-06-11T02:20:16.431Z,10.53
2018-06-11T02:22:45.585Z,10.70
2018-06-11T02:25:15.751Z,10.08
2018-06-11T02:27:45.615Z,11.28
2018-06-11T02:30:15.618Z,10.20
2018-06-11T02:32:45.737Z,10.85
2018-06-11T02:35:15.711Z,9.90
2018-06-11T02:37:45.650Z,11.05
2018-06-11T02:40:15.695Z,10.47
2018-06-11T02:42:45.567Z,10.03
2018-06-11T02:45:14.677Z,9.73
2018-06-11T02:47:43.779Z,10.10
2018-06-11T02:50:12.832Z,10.30
2018-06-11T02:52:41.928Z,10.23
2018-06-11T02:55:11.699Z,9.63
2018-06-11T02:57:46.956Z,10.07
2018-06-11T03:00:16.074Z,10.77
2018-06-11T03:02:45.835Z,10.72
2018-06-11T03:05:15.804Z,10.35
2018-06-11T03:07:45.919Z,10.60
2018-06-11T03:10:15.866Z,10.27
2018-06-11T03:12:46.042Z,10.05
2018-06-11T03:15:16.000Z,10.50
2018-06-11T03:17:46.045Z,9.50
2018-06-11T03:20:16.001Z,10.50
2018-06-11T03:22:46.199Z,11.20
2018-06-11T03:25:19.473Z,11.65
2018-06-11T03:27:48.644Z,11.10
2018-06-11T03:30:24.542Z,11.60
2018-06-11T03:32:53.807Z,10.85
2018-06-11T03:35:22.948Z,11.93
2018-06-11T03:37:52.127Z,11.45
2018-06-11T03:40:21.285Z,12.98
2018-06-11T03:42:50.405Z,11.30
2018-06-11T03:45:19.529Z,11.03
2018-06-11T03:47:48.697Z,12.43
2018-06-11T03:50:17.933Z,11.87
2018-06-11T03:52:47.091Z,11.47
2018-06-11T03:55:19.343Z,11.73
2018-06-11T03:57:48.611Z,11.90
2018-06-11T04:00:17.679Z,12.00
2018-06-11T04:02:46.818Z,12.00
2018-06-11T04:05:16.911Z,14.05
2018-06-11T04:07:46.311Z,12.78
2018-06-11T04:10:16.397Z,12.40
2018-06-11T04:12:46.371Z,13.17
2018-06-11T04:15:16.349Z,12.77
2018-06-11T04:17:46.265Z,12.60
2018-06-11T04:20:16.882Z,12.43
2018-06-11T04:22:46.444Z,12.95
2018-06-11T04:25:16.295Z,12.77
2018-06-11T04:27:46.503Z,13.13
2018-06-11T04:30:16.343Z,11.30
2018-06-11T04:32:46.435Z,11.80
2018-06-11T04:35:16.427Z,10.93
2018-06-11T04:37:46.437Z,11.73
2018-06-11T04:40:16.524Z,11.77
2018-06-11T04:42:46.517Z,11.80
2018-06-11T04:45:16.490Z,11.93
2018-06-11T04:47:46.504Z,14.40
2018-06-11T04:50:17.237Z,12.95
2018-06-11T04:52:46.489Z,13.35
2018-06-11T04:55:16.594Z,14.30
2018-06-11T04:57:46.599Z,13.40
2018-06-11T05:00:16.594Z,13.10
2018-06-11T05:02:46.616Z,13.58
2018-06-11T05:05:16.615Z,12.40
2018-06-11T05:07:46.602Z,13.43
2018-06-11T05:10:22.605Z,12.93
2018-06-11T05:12:51.700Z,11.73
2018-06-11T05:15:21.905Z,13.17
2018-06-11T05:17:51.046Z,13.07
2018-06-11T05:20:20.194Z,12.80
2018-06-11T05:22:49.326Z,13.30
2018-06-11T05:25:19.619Z,13.93
2018-06-11T05:27:48.843Z,13.60
2018-06-11T05:32:51.712Z,13.60
2018-06-11T05:35:20.879Z,15.30
2018-06-11T05:37:50.128Z,14.70
2018-06-11T05:40:19.378Z,13.50
2018-06-11T05:42:48.519Z,13.00
2018-06-11T05:45:17.708Z,13.47
2018-06-11T05:47:46.869Z,13.60
2018-06-11T05:50:16.912Z,13.25
2018-06-11T05:52:46.943Z,12.70
2018-06-11T05:55:18.658Z,14.20
2018-06-11T05:57:47.913Z,13.05
2018-06-11T06:00:18.044Z,13.70
2018-06-11T06:02:47.236Z,13.43
2018-06-11T06:05:17.124Z,12.78
2018-06-11T06:07:47.048Z,13.70
2018-06-11T06:10:17.093Z,12.27
2018-06-11T06:12:47.052Z,16.50
2018-06-11T06:15:17.089Z,16.17
2018-06-11T06:17:47.171Z,16.52
2018-06-11T06:20:22.768Z,16.37
2018-06-11T06:22:52.228Z,14.80
2018-06-11T06:25:35.403Z,16.67
2018-06-11T06:28:04.684Z,15.30
2018-06-11T06:30:36.992Z,14.63
2018-06-11T06:33:06.248Z,15.87
2018-06-11T06:35:35.834Z,16.00
2018-06-11T06:38:04.942Z,15.30
2018-06-11T06:40:34.073Z,14.60
2018-06-11T06:43:03.267Z,13.70
2018-06-11T06:45:32.410Z,13.93
2018-06-11T06:48:01.503Z,11.43
2018-06-11T06:50:30.616Z,12.17
2018-06-11T06:52:59.832Z,12.17
2018-06-11T06:55:29.013Z,11.70
2018-06-11T06:57:58.068Z,11.30
2018-06-11T07:00:27.171Z,10.00
2018-06-11T07:02:56.393Z,10.50
2018-06-11T07:05:25.482Z,10.10
2018-06-11T07:07:54.573Z,9.23
2018-06-11T07:10:23.834Z,11.53
2018-06-11T07:12:52.972Z,10.35
2018-06-11T07:15:22.063Z,10.27
2018-06-11T07:17:51.221Z,11.40
2018-06-11T07:20:20.411Z,9.40
2018-06-11T07:22:49.586Z,9.60
2018-06-11T07:25:22.844Z,9.93
2018-06-11T07:27:52.075Z,10.75
2018-06-11T07:30:21.225Z,9.57
2018-06-11T07:32:51.899Z,9.50
2018-06-11T07:35:20.984Z,9.30
2018-06-11T07:37:50.213Z,9.40
2018-06-11T07:40:19.345Z,8.60
2018-06-11T07:42:48.523Z,9.47
2018-06-11T07:45:17.710Z,7.90
2018-06-11T07:47:47.833Z,8.15
2018-06-11T07:50:17.685Z,8.23
2018-06-11T07:52:47.952Z,7.62
2018-06-11T07:55:17.789Z,8.17
2018-06-11T07:57:47.704Z,7.57
2018-06-11T08:00:17.736Z,9.57
2018-06-11T08:02:47.813Z,8.40
2018-06-11T08:05:18.308Z,7.92
2018-06-11T08:07:47.950Z,6.45
2018-06-11T08:10:17.841Z,5.80
2018-06-11T08:12:47.863Z,7.33
2018-06-11T08:15:19.593Z,7.57
2018-06-11T08:17:48.844Z,6.90
2018-06-11T08:20:17.967Z,6.57
2018-06-11T08:22:47.918Z,6.35
2018-06-11T08:25:18.114Z,6.03
2018-06-11T08:27:47.985Z,6.80
2018-06-11T08:30:21.849Z,5.80
2018-06-11T08:32:50.971Z,5.40
2018-06-11T08:35:20.140Z,6.63
2018-06-11T08:37:49.303Z,6.77
2018-06-11T08:40:18.474Z,6.17
2018-06-11T08:42:48.466Z,6.75
2018-06-11T08:45:18.189Z,6.37
2018-06-11T08:47:48.131Z,7.12
2018-06-11T08:50:18.161Z,8.00
2018-06-11T08:52:48.254Z,8.67
2018-06-11T08:55:18.225Z,8.27
2018-06-11T08:57:48.293Z,8.47
2018-06-11T09:00:21.947Z,8.70
2018-06-11T09:02:51.086Z,7.70
2018-06-11T09:05:20.219Z,7.17
2018-06-11T09:07:49.327Z,7.30
2018-06-11T09:10:18.488Z,7.73
2018-06-11T09:12:48.478Z,7.03
2018-06-11T09:15:18.276Z,6.53
2018-06-11T09:17:48.420Z,7.25
2018-06-11T09:20:18.350Z,6.30
2018-06-11T09:22:48.348Z,6.22
2018-06-11T09:25:18.417Z,6.67
2018-06-11T09:27:48.451Z,6.00
2018-06-11T09:30:21.649Z,5.57
2018-06-11T09:32:50.805Z,5.67
2018-06-11T09:35:19.977Z,6.73
2018-06-11T09:37:49.166Z,5.40
2018-06-11T09:40:19.408Z,5.30
2018-06-11T09:42:48.624Z,5.00
2018-06-11T09:45:18.458Z,4.60
2018-06-11T09:47:48.522Z,5.67
2018-06-11T09:50:18.559Z,5.00
2018-06-11T09:52:48.556Z,5.15
2018-06-11T09:55:18.524Z,5.23
2018-06-11T09:57:48.695Z,5.50
2018-06-11T10:00:23.722Z,5.25
2018-06-11T10:02:53.406Z,5.33
2018-06-11T10:05:29.105Z,6.17
2018-06-11T10:07:58.187Z,5.00
2018-06-11T10:10:27.373Z,4.93
2018-06-11T10:12:56.598Z,3.70
2018-06-11T10:15:25.696Z,4.90
2018-06-11T10:17:54.885Z,4.20
2018-06-11T10:20:24.076Z,4.03
2018-06-11T10:22:53.163Z,4.70
2018-06-11T10:25:22.368Z,4.77
2018-06-11T10:27:51.468Z,3.93
2018-06-11T10:30:20.551Z,4.57
2018-06-11T10:32:49.654Z,5.07
2018-06-11T10:35:18.922Z,4.50
2018-06-11T10:37:48.853Z,5.30
2018-06-11T10:40:18.868Z,4.60
2018-06-11T10:42:48.988Z,3.58
2018-06-11T10:45:19.096Z,4.10
2018-06-11T10:47:49.129Z,4.20
2018-06-11T10:50:26.169Z,4.50
2018-06-11T10:52:55.430Z,3.93
2018-06-11T10:55:24.523Z,4.08
2018-06-11T10:57:53.603Z,4.22
2018-06-11T11:00:23.967Z,4.40
2018-06-11T11:02:53.119Z,4.77
2018-06-11T11:05:22.327Z,4.40
2018-06-11T11:07:51.488Z,4.20
2018-06-11T11:10:20.610Z,4.50
2018-06-11T11:12:49.779Z,4.30
2018-06-11T11:15:19.294Z,5.70
2018-06-11T11:17:49.266Z,4.30
2018-06-11T11:20:19.245Z,4.27
2018-06-11T11:22:49.326Z,4.40
2018-06-11T11:25:19.252Z,3.95
2018-06-11T11:27:49.380Z,4.55
2018-06-11T11:30:19.280Z,4.47
2018-06-11T11:32:49.308Z,4.23
2018-06-11T11:35:19.418Z,4.30
2018-06-11T11:37:49.524Z,4.20
2018-06-11T11:40:19.444Z,4.20
2018-06-11T11:42:49.530Z,3.97
2018-06-11T11:45:19.526Z,4.27
2018-06-11T11:47:49.542Z,4.40
2018-06-11T11:50:19.429Z,5.00
2018-06-11T11:52:49.549Z,4.20
2018-06-11T11:55:19.550Z,4.30
2018-06-11T11:57:49.496Z,4.00
2018-06-11T12:00:23.133Z,4.40
2018-06-11T12:02:52.341Z,4.20
2018-06-11T12:05:21.478Z,4.03
2018-06-11T12:07:50.596Z,4.00
2018-06-11T12:10:19.774Z,4.30
2018-06-11T12:12:49.636Z,4.60
2018-06-11T12:15:21.184Z,3.90
2018-06-11T12:17:50.280Z,4.40
2018-06-11T12:20:23.080Z,4.22
2018-06-11T12:22:52.162Z,4.77
2018-06-11T12:25:21.467Z,4.53
2018-06-11T12:27:50.715Z,4.00
2018-06-11T12:30:19.972Z,3.97
2018-06-11T12:32:50.076Z,4.30
2018-06-11T12:35:19.848Z,4.03
2018-06-11T12:37:50.032Z,3.93
2018-06-11T12:40:20.045Z,4.47
2018-06-11T12:42:49.980Z,3.90
2018-06-11T12:45:20.153Z,3.65
2018-06-11T12:47:50.119Z,4.23
2018-06-11T12:50:20.115Z,3.60
2018-06-11T12:52:50.174Z,3.70
2018-06-11T12:55:20.160Z,3.70
2018-06-11T12:57:50.147Z,8.33
2018-06-11T13:00:20.202Z,4.10
2018-06-11T13:02:50.176Z,3.77
2018-06-11T13:05:21.623Z,6.17
2018-06-11T13:07:50.729Z,5.73
2018-06-11T13:10:20.230Z,4.03
2018-06-11T13:12:50.398Z,3.47
2018-06-11T13:15:20.241Z,3.70
2018-06-11T13:17:53.532Z,4.05
2018-06-11T13:20:22.701Z,4.30
2018-06-11T13:22:51.960Z,3.90
2018-06-11T13:25:21.092Z,4.30
2018-06-11T13:27:50.718Z,4.33
2018-06-11T13:30:20.528Z,4.33
2018-06-11T13:32:50.565Z,3.70
2018-06-11T13:35:20.611Z,3.70
2018-06-11T13:37:50.637Z,4.30
2018-06-11T13:40:20.655Z,3.60
2018-06-11T13:42:50.605Z,3.70
2018-06-11T13:45:20.643Z,4.13
2018-06-11T13:47:50.872Z,4.12
2018-06-11T13:50:21.043Z,3.70
2018-06-11T13:52:50.790Z,4.33
2018-06-11T13:55:21.345Z,3.70
2018-06-11T13:57:50.944Z,4.10
2018-06-11T14:02:54.644Z,3.83
2018-06-11T14:05:23.797Z,3.30
2018-06-11T14:07:52.986Z,4.10
2018-06-11T14:10:22.090Z,4.00
2018-06-11T14:12:51.228Z,4.40
2018-06-11T14:15:20.961Z,3.93
2018-06-11T14:17:51.854Z,4.72
2018-06-11T14:20:22.498Z,4.27
2018-06-11T14:22:52.221Z,3.97
2018-06-11T14:25:21.395Z,4.00
2018-06-11T14:27:50.573Z,4.00
2018-06-11T14:30:19.766Z,4.10
2018-06-11T14:32:48.936Z,4.43
2018-06-11T14:35:18.139Z,3.77
2018-06-11T14:37:47.308Z,4.10
2018-06-11T14:40:16.959Z,3.70
2018-06-11T14:42:46.445Z,3.20
2018-06-11T14:45:15.613Z,4.50
2018-06-11T14:47:44.736Z,4.70
2018-06-11T14:50:13.857Z,3.80
2018-06-11T14:52:43.659Z,5.67
2018-06-11T14:55:12.865Z,4.37
2018-06-11T14:57:45.313Z,4.20
2018-06-11T15:00:16.346Z,4.60
2018-06-11T15:02:45.416Z,3.90
2018-06-11T15:05:14.532Z,4.97
2018-06-11T15:07:43.661Z,4.17
2018-06-11T15:10:13.020Z,3.57
2018-06-11T15:12:42.382Z,3.70
2018-06-11T15:15:11.514Z,4.00
2018-06-11T15:17:46.081Z,4.43
2018-06-11T15:20:15.213Z,4.27
2018-06-11T15:22:45.114Z,4.10
2018-06-11T15:25:14.306Z,4.70
2018-06-11T15:27:43.608Z,4.73
2018-06-11T15:30:12.717Z,4.93
2018-06-11T15:32:43.324Z,4.03
2018-06-11T15:35:12.406Z,4.50
2018-06-11T15:37:41.493Z,4.20
2018-06-11T15:40:10.744Z,4.03
2018-06-11T15:42:39.905Z,4.27
2018-06-11T15:45:09.615Z,4.50
2018-06-11T15:47:38.899Z,5.17
2018-06-11T15:50:08.114Z,4.12
2018-06-11T15:52:37.504Z,4.58
2018-06-11T15:55:06.689Z,4.55
2018-06-11T15:57:35.812Z,4.40
2018-06-11T16:00:05.100Z,5.27
2018-06-11T16:02:37.517Z,4.58
2018-06-11T16:05:08.658Z,4.00
2018-06-11T16:07:37.816Z,5.08
2018-06-11T16:10:07.000Z,4.90
2018-06-11T16:12:36.131Z,5.67
2018-06-11T16:15:05.314Z,5.07
2018-06-11T16:17:34.412Z,5.20
2018-06-11T16:20:03.615Z,4.62
2018-06-11T16:22:32.719Z,5.20
2018-06-11T16:25:01.878Z,5.30
2018-06-11T16:27:30.963Z,6.57
2018-06-11T16:30:00.073Z,4.90
2018-06-11T16:32:29.278Z,4.37
2018-06-11T16:34:58.437Z,5.57
2018-06-11T16:37:27.591Z,5.00
2018-06-11T16:39:56.761Z,4.73
2018-06-11T16:42:25.928Z,4.50
2018-06-11T16:44:55.129Z,5.33
2018-06-11T16:47:28.273Z,6.63
2018-06-11T16:49:57.470Z,5.20
2018-06-11T16:52:27.706Z,5.33
2018-06-11T16:54:56.851Z,5.33
2018-06-11T16:57:25.946Z,6.23
2018-06-11T16:59:55.830Z,5.77
2018-06-11T17:02:24.988Z,5.20
2018-06-11T17:04:54.147Z,5.47
2018-06-11T17:07:23.356Z,4.97
2018-06-11T17:09:52.981Z,6.00
2018-06-11T17:12:22.923Z,5.27
2018-06-11T17:14:53.008Z,5.25
2018-06-11T17:17:24.898Z,5.17
2018-06-11T17:19:54.090Z,5.40
2018-06-11T17:22:24.143Z,7.10
2018-06-11T17:24:53.294Z,6.03
2018-06-11T17:27:26.391Z,5.75
2018-06-11T17:29:55.521Z,5.03
2018-06-11T17:32:24.669Z,5.30
2018-06-11T17:34:53.826Z,5.33
2018-06-11T17:37:23.425Z,5.13
2018-06-11T17:39:53.388Z,5.13
2018-06-11T17:42:23.428Z,4.70
2018-06-11T17:44:54.296Z,5.17
2018-06-11T17:47:24.409Z,5.10
2018-06-11T17:49:53.610Z,5.13
2018-06-11T17:52:23.448Z,6.27
2018-06-11T17:54:53.519Z,5.50
2018-06-11T17:57:23.471Z,4.27
2018-06-11T17:59:53.527Z,3.20
2018-06-11T18:02:23.668Z,2.60
2018-06-11T18:04:54.601Z,2.60
2018-06-11T18:07:23.816Z,3.20
2018-06-11T18:09:53.730Z,3.30
2018-06-11T18:12:23.805Z,3.50
2018-06-11T18:14:53.752Z,3.30
2018-06-11T18:17:25.602Z,3.45
2018-06-11T18:19:54.921Z,3.10
2018-06-11T18:22:27.546Z,3.50
2018-06-11T18:24:56.752Z,3.40
2018-06-11T18:27:26.197Z,3.20
2018-06-11T18:29:57.012Z,3.83
2018-06-11T18:32:26.224Z,3.17
2018-06-11T18:34:58.251Z,4.60
2018-06-11T18:37:27.429Z,3.37
2018-06-11T18:39:56.719Z,3.40
2018-06-11T18:42:26.078Z,3.53
2018-06-11T18:44:55.527Z,3.70
2018-06-11T18:47:24.929Z,3.10
2018-06-11T18:49:54.177Z,3.60
2018-06-11T18:52:24.170Z,2.90
2018-06-11T18:54:57.646Z,3.03
2018-06-11T18:57:26.999Z,3.13
2018-06-11T18:59:56.390Z,2.90
2018-06-11T19:02:25.619Z,3.20
2018-06-11T19:04:54.762Z,3.60
2018-06-11T19:07:24.478Z,3.37
2018-06-11T19:09:54.722Z,4.30
2018-06-11T19:12:24.561Z,4.47
2018-06-11T19:14:54.717Z,4.70
2018-06-11T19:17:24.376Z,4.23
2018-06-11T19:19:58.348Z,4.90
2018-06-11T19:22:27.577Z,4.67
2018-06-11T19:24:56.815Z,4.90
2018-06-11T19:27:25.989Z,5.17
2018-06-11T19:29:55.165Z,5.60
2018-06-11T19:32:25.077Z,4.30
2018-06-11T19:34:55.117Z,4.70
2018-06-11T19:37:25.684Z,4.37
2018-06-11T19:39:55.412Z,4.60
2018-06-11T19:42:24.755Z,5.10
2018-06-11T19:44:53.903Z,4.87
2018-06-11T19:47:27.816Z,4.87
2018-06-11T19:49:57.308Z,4.50
2018-06-11T19:52:26.593Z,4.93
2018-06-11T19:55:03.311Z,4.03
2018-06-11T19:57:37.968Z,4.27
2018-06-11T20:00:07.202Z,3.90
2018-06-11T20:02:36.452Z,4.50
2018-06-11T20:05:05.668Z,4.00
2018-06-11T20:07:34.793Z,3.87
2018-06-11T20:10:04.038Z,3.40
2018-06-11T20:12:33.816Z,3.60
2018-06-11T20:15:02.997Z,4.10
2018-06-11T20:17:32.147Z,3.40
2018-06-11T20:20:01.267Z,4.17
2018-06-11T20:22:30.537Z,4.00
2018-06-11T20:24:59.757Z,3.30
2018-06-11T20:27:29.099Z,3.37
2018-06-11T20:29:58.854Z,3.13
2018-06-11T20:32:28.479Z,3.47
2018-06-11T20:34:57.543Z,3.90
2018-06-11T20:37:26.734Z,3.17
2018-06-11T20:39:55.982Z,3.23
2018-06-11T20:42:25.226Z,3.37
2018-06-11T20:44:55.424Z,2.83
2018-06-11T20:47:25.337Z,2.77
2018-06-11T20:49:55.405Z,3.00
2018-06-11T20:52:25.403Z,2.63
2018-06-11T20:54:55.553Z,2.70
2018-06-11T20:57:25.440Z,2.80
2018-06-11T20:59:55.536Z,3.00
2018-06-11T21:02:27.347Z,3.00
2018-06-11T21:04:56.507Z,3.50
2018-06-11T21:07:25.618Z,3.20
2018-06-11T21:09:55.508Z,3.80
2018-06-11T21:12:25.529Z,3.30
2018-06-11T21:14:55.565Z,6.40
2018-06-11T21:17:25.715Z,5.40
2018-06-11T21:19:55.642Z,4.60
2018-06-11T21:22:25.804Z,4.17
2018-06-11T21:24:55.695Z,4.27
2018-06-11T21:27:25.883Z,4.63
2018-06-11T21:29:55.935Z,4.63
2018-06-11T21:32:25.893Z,5.55
2018-06-11T21:34:55.814Z,4.40
2018-06-11T21:37:26.026Z,5.37
2018-06-11T21:39:55.945Z,5.87
2018-06-11T21:42:25.859Z,5.50
2018-06-11T21:44:55.887Z,5.33
2018-06-11T21:47:25.909Z,6.00
2018-06-11T21:49:55.999Z,5.70
2018-06-11T21:52:26.049Z,5.22
2018-06-11T21:54:56.036Z,4.95
2018-06-11T21:57:26.058Z,5.50
2018-06-11T21:59:56.181Z,5.05
2018-06-11T22:02:26.056Z,5.40
2018-06-11T22:04:56.098Z,5.25
2018-06-11T22:07:25.192Z,5.60
2018-06-11T22:09:54.445Z,4.70
2018-06-11T22:12:23.602Z,5.67
2018-06-11T22:14:54.710Z,5.13
2018-06-11T22:17:23.873Z,5.53
2018-06-11T22:19:53.076Z,4.80
2018-06-11T22:22:22.220Z,5.20
2018-06-11T22:24:51.461Z,4.95
2018-06-11T22:27:20.600Z,5.10
2018-06-11T22:29:49.689Z,5.10
2018-06-11T22:32:18.810Z,4.70
2018-06-11T22:34:47.963Z,4.43
2018-06-11T22:37:17.004Z,4.50
2018-06-11T22:39:46.074Z,4.27
2018-06-11T22:42:15.192Z,4.43
2018-06-11T22:44:44.306Z,4.20
2018-06-11T22:47:16.305Z,4.30
2018-06-11T22:49:45.450Z,4.15
2018-06-11T22:52:15.342Z,4.13
2018-06-11T22:54:48.356Z,4.20
2018-06-11T22:57:17.486Z,3.60
2018-06-11T22:59:46.594Z,3.70
2018-06-11T23:02:16.974Z,3.70
2018-06-11T23:04:46.078Z,4.23
2018-06-11T23:07:15.250Z,3.87
2018-06-11T23:09:44.566Z,3.70
2018-06-11T23:12:14.942Z,4.40
2018-06-11T23:14:44.276Z,4.40
2018-06-11T23:17:13.500Z,3.90
2018-06-11T23:19:42.672Z,5.03
2018-06-11T23:24:49.504Z,3.97
2018-06-11T23:27:18.697Z,3.97
2018-06-11T23:29:47.868Z,3.73
2018-06-11T23:32:17.050Z,3.50
2018-06-11T23:34:46.214Z,3.87
2018-06-11T23:37:18.978Z,3.85
2018-06-11T23:39:48.241Z,3.50
2018-06-11T23:42:17.366Z,3.20
2018-06-11T23:44:59.083Z,6.63
2018-06-11T23:47:28.438Z,4.72
2018-06-11T23:49:58.570Z,3.58
2018-06-11T23:52:28.588Z,4.37
2018-06-11T23:54:58.492Z,3.73
2018-06-11T23:57:28.620Z,3.62
2018-06-11T23:59:58.584Z,3.70
